Gaz Unity — HOEJ — position and weather

sailwx.info

Track history (hours):
 
Tides and Currents Weather Stations Pressure Air Temp Water Temp Dewpoint Dewpoint Depression Visibility Wind Speed Wind Dir Waves Ship Positions

Gaz Unity

Last reported at 2015-Apr-19 13:33 UTC. Time now 2015-Apr-19 14:13 UTC.
Position N 35°25' E 014°46'.

Length 228 m; draft 9.5 m.

Type: Ship (hazmat cat C). MMSI: 353956000.

Date/timePositionNaut miles runAvg speedWind from/ knotsBaromVisibWave heightAir tempDewpointWater temp
2015-Apr-19 13:33N 35°25' E 014°46'1 0.7
2015-Apr-19 12:33N 35°25' E 014°46'1 0.6
2015-Apr-19 11:32N 35°26' E 014°47'0 0.5
2015-Apr-19 10:33N 35°26' E 014°48'0 0.4
2015-Apr-19 09:33N 35°26' E 014°48'0 0.4
2015-Apr-19 08:33N 35°27' E 014°48'3 2.1
2015-Apr-19 07:08N 35°27' E 014°45'3 5.5
2015-Apr-19 06:33N 35°28' E 014°41'5 5.5
2015-Apr-19 05:34N 35°29' E 014°34'5 4.8
2015-Apr-19 04:28N 35°30' E 014°28'1 0.7
2015-Apr-19 03:33N 35°29' E 014°28'0 0.3
2015-Apr-19 02:33N 35°29' E 014°28'0 0.3
2015-Apr-19 01:16N 35°29' E 014°28'1 0.6
2015-Apr-18 23:33N 35°28' E 014°29'1 0.5
2015-Apr-18 22:32N 35°28' E 014°30'1 0.6
2015-Apr-18 21:33N 35°27' E 014°30'0 0.5
2015-Apr-18 20:33N 35°27' E 014°31'1 0.5
2015-Apr-18 19:33N 35°27' E 014°31'0 0.5
2015-Apr-18 18:33N 35°27' E 014°32'1 0.5
2015-Apr-18 17:29N 35°27' E 014°33'0 0.3
2015-Apr-18 16:23N 35°27' E 014°33'0 0.3
2015-Apr-18 15:32N 35°27' E 014°33'0 0.4
2015-Apr-18 14:07N 35°28' E 014°33'0 0.4
2015-Apr-18 13:30N 35°28' E 014°33'0 0.4
2015-Apr-18 12:33N 35°28' E 014°33'0 0.4
2015-Apr-18 11:33N 35°29' E 014°33'0 0.2
2015-Apr-18 10:33N 35°29' E 014°32'0 0.3
2015-Apr-18 09:33N 35°29' E 014°32'0 0.3
2015-Apr-18 08:33N 35°28' E 014°32'0 0.5
2015-Apr-18 07:34N 35°28' E 014°32'3 3.1
2015-Apr-18 06:33N 35°31' E 014°35'5 5.3
2015-Apr-18 05:33N 35°35' E 014°39'6 1.0
2015-Apr-18 00:04N 35°39' E 014°43'1 1.2
2015-Apr-17 23:33N 35°39' E 014°44'1 1.0
2015-Apr-17 22:33N 35°38' E 014°45'2 2.5
2015-Apr-17 21:33N 35°41' E 014°46'1 1.0
2015-Apr-17 20:33N 35°42' E 014°46'1 0.8
2015-Apr-17 19:33N 35°41' E 014°47'1 0.7
2015-Apr-17 18:33N 35°41' E 014°48'1 0.6
2015-Apr-17 17:33N 35°40' E 014°48'1 0.6
2015-Apr-17 16:33N 35°40' E 014°48'1 0.8
2015-Apr-17 15:34N 35°39' E 014°48'1 0.9
2015-Apr-17 14:34N 35°38' E 014°48'1 1.0
2015-Apr-17 13:33N 35°37' E 014°48'1 1.1
2015-Apr-17 12:33N 35°36' E 014°48'1 1.2
2015-Apr-17 11:34N 35°35' E 014°47'1 1.1
2015-Apr-17 10:33N 35°34' E 014°47'1 1.0
2015-Apr-17 09:33N 35°33' E 014°46'1 1.0
2015-Apr-17 08:33N 35°32' E 014°46'1 0.9
2015-Apr-17 07:27N 35°31' E 014°46'9 3.1
2015-Apr-17 04:33N 35°40' E 014°49'1 0.9
2015-Apr-17 03:33N 35°39' E 014°50'1 0.8
2015-Apr-17 02:33N 35°38' E 014°50'1 0.7
2015-Apr-17 01:33N 35°38' E 014°50'1 0.8
2015-Apr-17 00:33N 35°37' E 014°50'1 0.8
2015-Apr-16 23:33N 35°36' E 014°50'1 0.8
2015-Apr-16 22:33N 35°35' E 014°49'1 0.8
2015-Apr-16 21:33N 35°35' E 014°49'1 0.9
2015-Apr-16 20:33N 35°34' E 014°48'1 0.8
2015-Apr-16 19:34N 35°33' E 014°48'1 0.5
2015-Apr-16 18:33N 35°33' E 014°47'2 2.1
2015-Apr-16 17:34N 35°32' E 014°50'3 3.0
2015-Apr-16 16:34N 35°32' E 014°54'1 0.8
2015-Apr-16 15:33N 35°31' E 014°53'1 0.7
2015-Apr-16 14:33N 35°31' E 014°53'1 0.6
2015-Apr-16 13:33N 35°30' E 014°53'1 0.8
2015-Apr-16 12:33N 35°30' E 014°54'5 4.6
2015-Apr-16 11:33N 35°33' E 014°58'1 0.6
2015-Apr-16 10:33N 35°33' E 014°58'0 0.1
2015-Apr-16 09:33N 35°33' E 014°58'2 1.5
2015-Apr-16 08:32N 35°35' E 014°59'0 0.5
2015-Apr-16 07:31N 35°35' E 014°59'2 2.3
2015-Apr-16 06:33N 35°37' E 014°59'6 5.6
2015-Apr-16 05:33N 35°42' E 015°01'2 2.1
2015-Apr-16 04:33N 35°45' E 015°01'0 0.5
2015-Apr-16 03:33N 35°45' E 015°00'0 0.4
2015-Apr-16 02:33N 35°45' E 014°60'0 0.4
2015-Apr-16 01:33N 35°45' E 014°59'1 0.5
2015-Apr-16 00:21N 35°45' E 014°59'0 0.4
2015-Apr-15 23:33N 35°45' E 014°58'0 0.3
2015-Apr-15 22:33N 35°45' E 014°58'0 0.3
2015-Apr-15 21:33N 35°45' E 014°58'0 0.4
2015-Apr-15 20:33N 35°44' E 014°58'0 0.5
2015-Apr-15 19:33N 35°44' E 014°58'0 0.5
2015-Apr-15 18:33N 35°43' E 014°58'1 0.6
2015-Apr-15 17:33N 35°43' E 014°58'1 0.6
2015-Apr-15 16:22N 35°43' E 014°59'1 0.7
2015-Apr-15 15:33N 35°42' E 014°60'1 1.0
2015-Apr-15 14:33N 35°42' E 015°01'2 1.6
2015-Apr-15 13:33N 35°43' E 015°02'1 0.6
2015-Apr-15 12:09N 35°44' E 015°03'1 1.1
2015-Apr-15 11:13N 35°45' E 015°04'3 4.4
2015-Apr-15 10:33N 35°45' E 015°00'3 2.8
2015-Apr-15 09:33N 35°44' E 014°57'0 0.3
2015-Apr-15 08:33N 35°44' E 014°57'5 4.8
2015-Apr-15 07:33N 35°39' E 014°56'1212.2
2015-Apr-15 06:32N 35°27' E 014°58'9 9.0
2015-Apr-15 05:33N 35°18' E 014°58'1 0.8
2015-Apr-15 04:33N 35°19' E 014°58'1 0.7
2015-Apr-15 02:25N 35°20' E 014°57'1 0.6
2015-Apr-15 01:34N 35°20' E 014°57'0 0.4
2015-Apr-15 00:33N 35°20' E 014°56'0 0.3
2015-Apr-14 23:33N 35°20' E 014°56'0 0.3
2015-Apr-14 22:33N 35°21' E 014°56'0 0.3
2015-Apr-14 21:33N 35°21' E 014°56'0 0.3
2015-Apr-14 20:33N 35°21' E 014°56'1 0.5
2015-Apr-14 19:33N 35°22' E 014°56'8 0.8
2015-Apr-14 10:15N 35°28' E 015°01'0 0.7
2015-Apr-14 09:33N 35°29' E 015°01'3 2.8
2015-Apr-14 08:33N 35°27' E 014°58'1 0.6
2015-Apr-14 07:27N 35°28' E 014°57'1 0.7
2015-Apr-14 06:34N 35°29' E 014°57'1 0.7
2015-Apr-14 05:33N 35°29' E 014°57'1 0.7
2015-Apr-14 04:33N 35°30' E 014°57'1 0.6
2015-Apr-14 03:18N 35°31' E 014°56'0 0.5
2015-Apr-14 02:33N 35°31' E 014°56'1 0.5
2015-Apr-14 01:31N 35°32' E 014°56'1 0.5
2015-Apr-14 00:22N 35°32' E 014°56'3 0.6
2015-Apr-13 19:23N 35°35' E 014°58'1 0.4
2015-Apr-13 17:30N 35°35' E 014°59'0 0.4
2015-Apr-13 16:33N 35°35' E 014°59'0 0.5
2015-Apr-13 15:33N 35°36' E 014°59'1 0.5
2015-Apr-13 14:20N 35°36' E 014°60'1 0.6
2015-Apr-13 13:17N 35°37' E 014°60'1 0.5
2015-Apr-13 12:03N 35°38' E 014°60'0 0.4
2015-Apr-13 11:33N 35°38' E 014°60'0 0.4
2015-Apr-13 10:31N 35°38' E 014°59'1 0.3
2015-Apr-13 08:34N 35°39' E 014°59'0 0.3
2015-Apr-13 07:10N 35°39' E 014°58'0 0.2
2015-Apr-13 06:15N 35°38' E 014°58'0 0.3
2015-Apr-13 04:30N 35°38' E 014°58'0 0.3
2015-Apr-13 03:23N 35°38' E 014°58'0 0.3
2015-Apr-13 02:28N 35°37' E 014°58'1 0.4
2015-Apr-12 23:14N 35°36' E 014°59'0 0.4
2015-Apr-12 22:33N 35°36' E 014°59'0 0.3
2015-Apr-12 21:33N 35°36' E 014°59'1 0.1
2015-Apr-12 09:29N 35°35' E 014°58'5 2.7
2015-Apr-12 07:33N 35°35' E 015°04'1 0.6
2015-Apr-12 06:32N 35°35' E 015°04'1 0.5
2015-Apr-12 04:33N 35°34' E 015°03'  
Track history (hours):
 
Tides and Currents Weather Stations Pressure Air Temp Water Temp Dewpoint Dewpoint Depression Visibility Wind Speed Wind Dir Waves Ship Positions

Gaz Unity

Last reported at 2015-Apr-19 13:33 UTC. Time now 2015-Apr-19 14:13 UTC.
Position N 35°25' E 014°46'.

Length 228 m; draft 9.5 m.

Type: Ship (hazmat cat C). MMSI: 353956000.

Date/timePositionNaut miles runAvg speedWind from/ knotsBaromVisibWave heightAir tempDewpointWater temp
2015-Apr-19 13:33N 35°25' E 014°46'1 0.7
2015-Apr-19 12:33N 35°25' E 014°46'1 0.6
2015-Apr-19 11:32N 35°26' E 014°47'0 0.5
2015-Apr-19 10:33N 35°26' E 014°48'0 0.4
2015-Apr-19 09:33N 35°26' E 014°48'0 0.4
2015-Apr-19 08:33N 35°27' E 014°48'3 2.1
2015-Apr-19 07:08N 35°27' E 014°45'3 5.5
2015-Apr-19 06:33N 35°28' E 014°41'5 5.5
2015-Apr-19 05:34N 35°29' E 014°34'5 4.8
2015-Apr-19 04:28N 35°30' E 014°28'1 0.7
2015-Apr-19 03:33N 35°29' E 014°28'0 0.3
2015-Apr-19 02:33N 35°29' E 014°28'0 0.3
2015-Apr-19 01:16N 35°29' E 014°28'1 0.6
2015-Apr-18 23:33N 35°28' E 014°29'1 0.5
2015-Apr-18 22:32N 35°28' E 014°30'1 0.6
2015-Apr-18 21:33N 35°27' E 014°30'0 0.5
2015-Apr-18 20:33N 35°27' E 014°31'1 0.5
2015-Apr-18 19:33N 35°27' E 014°31'0 0.5
2015-Apr-18 18:33N 35°27' E 014°32'1 0.5
2015-Apr-18 17:29N 35°27' E 014°33'0 0.3
2015-Apr-18 16:23N 35°27' E 014°33'0 0.3
2015-Apr-18 15:32N 35°27' E 014°33'0 0.4
2015-Apr-18 14:07N 35°28' E 014°33'0 0.4
2015-Apr-18 13:30N 35°28' E 014°33'0 0.4
2015-Apr-18 12:33N 35°28' E 014°33'0 0.4
2015-Apr-18 11:33N 35°29' E 014°33'0 0.2
2015-Apr-18 10:33N 35°29' E 014°32'0 0.3
2015-Apr-18 09:33N 35°29' E 014°32'0 0.3
2015-Apr-18 08:33N 35°28' E 014°32'0 0.5
2015-Apr-18 07:34N 35°28' E 014°32'3 3.1
2015-Apr-18 06:33N 35°31' E 014°35'5 5.3
2015-Apr-18 05:33N 35°35' E 014°39'6 1.0
2015-Apr-18 00:04N 35°39' E 014°43'1 1.2
2015-Apr-17 23:33N 35°39' E 014°44'1 1.0
2015-Apr-17 22:33N 35°38' E 014°45'2 2.5
2015-Apr-17 21:33N 35°41' E 014°46'1 1.0
2015-Apr-17 20:33N 35°42' E 014°46'1 0.8
2015-Apr-17 19:33N 35°41' E 014°47'1 0.7
2015-Apr-17 18:33N 35°41' E 014°48'1 0.6
2015-Apr-17 17:33N 35°40' E 014°48'1 0.6
2015-Apr-17 16:33N 35°40' E 014°48'1 0.8
2015-Apr-17 15:34N 35°39' E 014°48'1 0.9
2015-Apr-17 14:34N 35°38' E 014°48'1 1.0
2015-Apr-17 13:33N 35°37' E 014°48'1 1.1
2015-Apr-17 12:33N 35°36' E 014°48'1 1.2
2015-Apr-17 11:34N 35°35' E 014°47'1 1.1
2015-Apr-17 10:33N 35°34' E 014°47'1 1.0
2015-Apr-17 09:33N 35°33' E 014°46'1 1.0
2015-Apr-17 08:33N 35°32' E 014°46'1 0.9
2015-Apr-17 07:27N 35°31' E 014°46'9 3.1
2015-Apr-17 04:33N 35°40' E 014°49'1 0.9
2015-Apr-17 03:33N 35°39' E 014°50'1 0.8
2015-Apr-17 02:33N 35°38' E 014°50'1 0.7
2015-Apr-17 01:33N 35°38' E 014°50'1 0.8
2015-Apr-17 00:33N 35°37' E 014°50'1 0.8
2015-Apr-16 23:33N 35°36' E 014°50'1 0.8
2015-Apr-16 22:33N 35°35' E 014°49'1 0.8
2015-Apr-16 21:33N 35°35' E 014°49'1 0.9
2015-Apr-16 20:33N 35°34' E 014°48'1 0.8
2015-Apr-16 19:34N 35°33' E 014°48'1 0.5
2015-Apr-16 18:33N 35°33' E 014°47'2 2.1
2015-Apr-16 17:34N 35°32' E 014°50'3 3.0
2015-Apr-16 16:34N 35°32' E 014°54'1 0.8
2015-Apr-16 15:33N 35°31' E 014°53'1 0.7
2015-Apr-16 14:33N 35°31' E 014°53'1 0.6
2015-Apr-16 13:33N 35°30' E 014°53'1 0.8
2015-Apr-16 12:33N 35°30' E 014°54'5 4.6
2015-Apr-16 11:33N 35°33' E 014°58'1 0.6
2015-Apr-16 10:33N 35°33' E 014°58'0 0.1
2015-Apr-16 09:33N 35°33' E 014°58'2 1.5
2015-Apr-16 08:32N 35°35' E 014°59'0 0.5
2015-Apr-16 07:31N 35°35' E 014°59'2 2.3
2015-Apr-16 06:33N 35°37' E 014°59'6 5.6
2015-Apr-16 05:33N 35°42' E 015°01'2 2.1
2015-Apr-16 04:33N 35°45' E 015°01'0 0.5
2015-Apr-16 03:33N 35°45' E 015°00'0 0.4
2015-Apr-16 02:33N 35°45' E 014°60'0 0.4
2015-Apr-16 01:33N 35°45' E 014°59'1 0.5
2015-Apr-16 00:21N 35°45' E 014°59'0 0.4
2015-Apr-15 23:33N 35°45' E 014°58'0 0.3
2015-Apr-15 22:33N 35°45' E 014°58'0 0.3
2015-Apr-15 21:33N 35°45' E 014°58'0 0.4
2015-Apr-15 20:33N 35°44' E 014°58'0 0.5
2015-Apr-15 19:33N 35°44' E 014°58'0 0.5
2015-Apr-15 18:33N 35°43' E 014°58'1 0.6
2015-Apr-15 17:33N 35°43' E 014°58'1 0.6
2015-Apr-15 16:22N 35°43' E 014°59'1 0.7
2015-Apr-15 15:33N 35°42' E 014°60'1 1.0
2015-Apr-15 14:33N 35°42' E 015°01'2 1.6
2015-Apr-15 13:33N 35°43' E 015°02'1 0.6
2015-Apr-15 12:09N 35°44' E 015°03'1 1.1
2015-Apr-15 11:13N 35°45' E 015°04'3 4.4
2015-Apr-15 10:33N 35°45' E 015°00'3 2.8
2015-Apr-15 09:33N 35°44' E 014°57'0 0.3
2015-Apr-15 08:33N 35°44' E 014°57'5 4.8
2015-Apr-15 07:33N 35°39' E 014°56'1212.2
2015-Apr-15 06:32N 35°27' E 014°58'9 9.0
2015-Apr-15 05:33N 35°18' E 014°58'1 0.8
2015-Apr-15 04:33N 35°19' E 014°58'1 0.7
2015-Apr-15 02:25N 35°20' E 014°57'1 0.6
2015-Apr-15 01:34N 35°20' E 014°57'0 0.4
2015-Apr-15 00:33N 35°20' E 014°56'0 0.3
2015-Apr-14 23:33N 35°20' E 014°56'0 0.3
2015-Apr-14 22:33N 35°21' E 014°56'0 0.3
2015-Apr-14 21:33N 35°21' E 014°56'0 0.3
2015-Apr-14 20:33N 35°21' E 014°56'1 0.5
2015-Apr-14 19:33N 35°22' E 014°56'8 0.8
2015-Apr-14 10:15N 35°28' E 015°01'0 0.7
2015-Apr-14 09:33N 35°29' E 015°01'3 2.8
2015-Apr-14 08:33N 35°27' E 014°58'1 0.6
2015-Apr-14 07:27N 35°28' E 014°57'1 0.7
2015-Apr-14 06:34N 35°29' E 014°57'1 0.7
2015-Apr-14 05:33N 35°29' E 014°57'1 0.7
2015-Apr-14 04:33N 35°30' E 014°57'1 0.6
2015-Apr-14 03:18N 35°31' E 014°56'0 0.5
2015-Apr-14 02:33N 35°31' E 014°56'1 0.5
2015-Apr-14 01:31N 35°32' E 014°56'1 0.5
2015-Apr-14 00:22N 35°32' E 014°56'3 0.6
2015-Apr-13 19:23N 35°35' E 014°58'1 0.4
2015-Apr-13 17:30N 35°35' E 014°59'0 0.4
2015-Apr-13 16:33N 35°35' E 014°59'0 0.5
2015-Apr-13 15:33N 35°36' E 014°59'1 0.5
2015-Apr-13 14:20N 35°36' E 014°60'1 0.6
2015-Apr-13 13:17N 35°37' E 014°60'1 0.5
2015-Apr-13 12:03N 35°38' E 014°60'0 0.4
2015-Apr-13 11:33N 35°38' E 014°60'0 0.4
2015-Apr-13 10:31N 35°38' E 014°59'1 0.3
2015-Apr-13 08:34N 35°39' E 014°59'0 0.3
2015-Apr-13 07:10N 35°39' E 014°58'0 0.2
2015-Apr-13 06:15N 35°38' E 014°58'0 0.3
2015-Apr-13 04:30N 35°38' E 014°58'0 0.3
2015-Apr-13 03:23N 35°38' E 014°58'0 0.3
2015-Apr-13 02:28N 35°37' E 014°58'1 0.4
2015-Apr-12 23:14N 35°36' E 014°59'0 0.4
2015-Apr-12 22:33N 35°36' E 014°59'0 0.3
2015-Apr-12 21:33N 35°36' E 014°59'1 0.1
2015-Apr-12 09:29N 35°35' E 014°58'5 2.7
2015-Apr-12 07:33N 35°35' E 015°04'1 0.6
2015-Apr-12 06:32N 35°35' E 015°04'1 0.5
2015-Apr-12 04:33N 35°34' E 015°03'  

Dump ship's entire track history